sensor_id;sensor_type;location;lat;lon;timestamp;P1;durP1;ratioP1;P2;durP2;ratioP2
487;SDS011;16586;48.976;9.584;2022-11-27T00:01:09;3.20;;;3.00;;
487;SDS011;16586;48.976;9.584;2022-11-27T00:03:36;3.38;;;3.20;;
487;SDS011;16586;48.976;9.584;2022-11-27T00:06:15;3.50;;;3.35;;
487;SDS011;16586;48.976;9.584;2022-11-27T00:08:50;3.30;;;3.10;;
487;SDS011;16586;48.976;9.584;2022-11-27T00:11:27;3.60;;;3.40;;
487;SDS011;16586;48.976;9.584;2022-11-27T00:13:57;3.40;;;3.20;;
487;SDS011;16586;48.976;9.584;2022-11-27T00:16:31;3.30;;;3.10;;
487;SDS011;16586;48.976;9.584;2022-11-27T00:19:03;3.22;;;3.10;;
487;SDS011;16586;48.976;9.584;2022-11-27T00:21:40;3.28;;;3.08;;
487;SDS011;16586;48.976;9.584;2022-11-27T00:24:07;3.03;;;2.83;;
487;SDS011;16586;48.976;9.584;2022-11-27T00:26:35;3.47;;;3.27;;
487;SDS011;16586;48.976;9.584;2022-11-27T00:29:02;3.13;;;2.92;;
487;SDS011;16586;48.976;9.584;2022-11-27T00:31:29;3.40;;;3.20;;
487;SDS011;16586;48.976;9.584;2022-11-27T00:33:58;3.08;;;2.88;;
487;SDS011;16586;48.976;9.584;2022-11-27T00:36:26;3.00;;;2.80;;
487;SDS011;16586;48.976;9.584;2022-11-27T00:38:55;2.80;;;2.50;;
487;SDS011;16586;48.976;9.584;2022-11-27T00:41:23;2.95;;;2.75;;
487;SDS011;16586;48.976;9.584;2022-11-27T00:43:51;3.20;;;3.00;;
487;SDS011;16586;48.976;9.584;2022-11-27T00:46:19;3.42;;;3.22;;
487;SDS011;16586;48.976;9.584;2022-11-27T00:48:47;2.95;;;2.75;;
487;SDS011;16586;48.976;9.584;2022-11-27T00:51:15;3.00;;;2.80;;
487;SDS011;16586;48.976;9.584;2022-11-27T00:53:44;3.13;;;2.92;;
487;SDS011;16586;48.976;9.584;2022-11-27T00:56:13;3.08;;;2.90;;
487;SDS011;16586;48.976;9.584;2022-11-27T00:58:41;2.80;;;2.60;;
487;SDS011;16586;48.976;9.584;2022-11-27T01:01:12;3.05;;;2.85;;
487;SDS011;16586;48.976;9.584;2022-11-27T01:03:41;2.90;;;2.80;;
487;SDS011;16586;48.976;9.584;2022-11-27T01:06:08;3.40;;;3.20;;
487;SDS011;16586;48.976;9.584;2022-11-27T01:08:35;3.17;;;2.97;;
487;SDS011;16586;48.976;9.584;2022-11-27T01:11:02;3.60;;;3.40;;
487;SDS011;16586;48.976;9.584;2022-11-27T01:13:31;2.78;;;2.58;;
487;SDS011;16586;48.976;9.584;2022-11-27T01:15:59;4.30;;;3.10;;
487;SDS011;16586;48.976;9.584;2022-11-27T01:18:26;3.50;;;3.30;;
487;SDS011;16586;48.976;9.584;2022-11-27T01:20:54;3.30;;;3.10;;
487;SDS011;16586;48.976;9.584;2022-11-27T01:23:21;3.30;;;3.10;;
487;SDS011;16586;48.976;9.584;2022-11-27T01:25:49;3.37;;;3.17;;
487;SDS011;16586;48.976;9.584;2022-11-27T01:28:17;3.35;;;3.15;;
487;SDS011;16586;48.976;9.584;2022-11-27T01:30:46;3.00;;;2.80;;
487;SDS011;16586;48.976;9.584;2022-11-27T01:33:13;3.30;;;3.10;;
487;SDS011;16586;48.976;9.584;2022-11-27T01:35:40;3.22;;;3.03;;
487;SDS011;16586;48.976;9.584;2022-11-27T01:38:06;3.30;;;3.10;;
487;SDS011;16586;48.976;9.584;2022-11-27T01:40:34;3.33;;;3.15;;
487;SDS011;16586;48.976;9.584;2022-11-27T01:43:00;3.53;;;3.33;;
487;SDS011;16586;48.976;9.584;2022-11-27T01:45:27;3.30;;;3.10;;
487;SDS011;16586;48.976;9.584;2022-11-27T01:47:56;2.90;;;2.70;;
487;SDS011;16586;48.976;9.584;2022-11-27T01:50:27;3.00;;;2.90;;
487;SDS011;16586;48.976;9.584;2022-11-27T01:52:57;2.67;;;2.47;;
487;SDS011;16586;48.976;9.584;2022-11-27T01:55:29;3.00;;;2.80;;
487;SDS011;16586;48.976;9.584;2022-11-27T01:58:00;2.70;;;2.58;;
487;SDS011;16586;48.976;9.584;2022-11-27T02:00:30;3.10;;;2.90;;
487;SDS011;16586;48.976;9.584;2022-11-27T02:02:58;2.92;;;2.72;;
487;SDS011;16586;48.976;9.584;2022-11-27T02:05:26;3.47;;;3.28;;
487;SDS011;16586;48.976;9.584;2022-11-27T02:07:54;3.10;;;2.90;;
487;SDS011;16586;48.976;9.584;2022-11-27T02:10:22;3.03;;;2.83;;
487;SDS011;16586;48.976;9.584;2022-11-27T02:12:59;3.35;;;3.15;;
487;SDS011;16586;48.976;9.584;2022-11-27T02:15:32;3.73;;;3.57;;
487;SDS011;16586;48.976;9.584;2022-11-27T02:18:09;3.00;;;2.83;;
487;SDS011;16586;48.976;9.584;2022-11-27T02:20:44;3.47;;;3.28;;
487;SDS011;16586;48.976;9.584;2022-11-27T02:23:28;3.33;;;2.80;;
487;SDS011;16586;48.976;9.584;2022-11-27T02:26:23;3.97;;;2.38;;
487;SDS011;16586;48.976;9.584;2022-11-27T02:29:12;3.25;;;3.05;;
487;SDS011;16586;48.976;9.584;2022-11-27T02:31:40;2.78;;;2.58;;
487;SDS011;16586;48.976;9.584;2022-11-27T02:34:14;2.75;;;2.55;;
487;SDS011;16586;48.976;9.584;2022-11-27T02:36:48;2.75;;;2.63;;
487;SDS011;16586;48.976;9.584;2022-11-27T02:39:20;3.30;;;3.10;;
487;SDS011;16586;48.976;9.584;2022-11-27T02:41:52;2.80;;;2.60;;
487;SDS011;16586;48.976;9.584;2022-11-27T02:44:26;3.10;;;2.65;;
487;SDS011;16586;48.976;9.584;2022-11-27T02:46:58;3.00;;;2.80;;
487;SDS011;16586;48.976;9.584;2022-11-27T02:49:26;3.88;;;2.80;;
487;SDS011;16586;48.976;9.584;2022-11-27T02:51:54;3.20;;;2.88;;
487;SDS011;16586;48.976;9.584;2022-11-27T02:54:24;3.00;;;2.80;;
487;SDS011;16586;48.976;9.584;2022-11-27T02:56:52;2.80;;;2.60;;
487;SDS011;16586;48.976;9.584;2022-11-27T02:59:21;2.92;;;2.70;;
487;SDS011;16586;48.976;9.584;2022-11-27T03:01:51;4.90;;;3.03;;
487;SDS011;16586;48.976;9.584;2022-11-27T03:04:23;3.50;;;3.40;;
487;SDS011;16586;48.976;9.584;2022-11-27T03:06:54;3.50;;;3.30;;
487;SDS011;16586;48.976;9.584;2022-11-27T03:09:24;3.60;;;3.40;;
487;SDS011;16586;48.976;9.584;2022-11-27T03:11:54;3.80;;;3.60;;
487;SDS011;16586;48.976;9.584;2022-11-27T03:14:22;3.50;;;3.30;;
487;SDS011;16586;48.976;9.584;2022-11-27T03:16:54;3.58;;;3.38;;
487;SDS011;16586;48.976;9.584;2022-11-27T03:19:29;3.35;;;3.25;;
487;SDS011;16586;48.976;9.584;2022-11-27T03:22:02;3.50;;;3.30;;
487;SDS011;16586;48.976;9.584;2022-11-27T03:24:30;3.30;;;3.10;;
487;SDS011;16586;48.976;9.584;2022-11-27T03:26:59;3.28;;;3.05;;
487;SDS011;16586;48.976;9.584;2022-11-27T03:29:28;3.60;;;3.40;;
487;SDS011;16586;48.976;9.584;2022-11-27T03:32:01;3.55;;;3.35;;
487;SDS011;16586;48.976;9.584;2022-11-27T03:34:29;3.90;;;3.70;;
487;SDS011;16586;48.976;9.584;2022-11-27T03:36:56;3.55;;;3.35;;
487;SDS011;16586;48.976;9.584;2022-11-27T03:39:23;3.22;;;3.03;;
487;SDS011;16586;48.976;9.584;2022-11-27T03:41:53;3.75;;;3.20;;
487;SDS011;16586;48.976;9.584;2022-11-27T03:44:28;3.70;;;3.50;;
487;SDS011;16586;48.976;9.584;2022-11-27T03:47:05;3.47;;;3.28;;
487;SDS011;16586;48.976;9.584;2022-11-27T03:49:42;3.30;;;3.10;;
487;SDS011;16586;48.976;9.584;2022-11-27T03:52:23;3.72;;;3.20;;
487;SDS011;16586;48.976;9.584;2022-11-27T03:54:58;3.90;;;3.70;;
487;SDS011;16586;48.976;9.584;2022-11-27T03:57:32;4.15;;;3.50;;
487;SDS011;16586;48.976;9.584;2022-11-27T04:00:04;3.70;;;3.50;;
487;SDS011;16586;48.976;9.584;2022-11-27T04:02:40;3.60;;;3.40;;
487;SDS011;16586;48.976;9.584;2022-11-27T04:05:09;3.40;;;3.20;;
487;SDS011;16586;48.976;9.584;2022-11-27T04:07:37;3.55;;;3.05;;
487;SDS011;16586;48.976;9.584;2022-11-27T04:10:04;3.90;;;3.50;;
487;SDS011;16586;48.976;9.584;2022-11-27T04:12:32;3.73;;;3.53;;
487;SDS011;16586;48.976;9.584;2022-11-27T04:14:59;3.30;;;3.10;;
487;SDS011;16586;48.976;9.584;2022-11-27T04:17:26;3.58;;;3.42;;
487;SDS011;16586;48.976;9.584;2022-11-27T04:19:54;3.50;;;3.13;;
487;SDS011;16586;48.976;9.584;2022-11-27T04:22:21;3.45;;;3.20;;
487;SDS011;16586;48.976;9.584;2022-11-27T04:24:48;3.42;;;3.30;;
487;SDS011;16586;48.976;9.584;2022-11-27T04:27:14;3.70;;;3.40;;
487;SDS011;16586;48.976;9.584;2022-11-27T04:29:41;3.60;;;3.30;;
487;SDS011;16586;48.976;9.584;2022-11-27T04:32:08;4.20;;;3.30;;
487;SDS011;16586;48.976;9.584;2022-11-27T04:34:35;3.50;;;3.30;;
487;SDS011;16586;48.976;9.584;2022-11-27T04:37:03;3.40;;;3.00;;
487;SDS011;16586;48.976;9.584;2022-11-27T04:39:30;4.10;;;3.58;;
487;SDS011;16586;48.976;9.584;2022-11-27T04:41:57;3.80;;;3.60;;
487;SDS011;16586;48.976;9.584;2022-11-27T04:44:24;3.80;;;3.60;;
487;SDS011;16586;48.976;9.584;2022-11-27T04:46:50;3.58;;;3.40;;
487;SDS011;16586;48.976;9.584;2022-11-27T04:49:17;3.67;;;3.17;;
487;SDS011;16586;48.976;9.584;2022-11-27T04:51:44;4.03;;;3.25;;
487;SDS011;16586;48.976;9.584;2022-11-27T04:54:12;3.70;;;3.40;;
487;SDS011;16586;48.976;9.584;2022-11-27T04:56:39;3.53;;;3.28;;
487;SDS011;16586;48.976;9.584;2022-11-27T04:59:06;3.70;;;3.45;;
487;SDS011;16586;48.976;9.584;2022-11-27T05:01:33;4.00;;;3.33;;
487;SDS011;16586;48.976;9.584;2022-11-27T05:03:59;3.85;;;3.60;;
487;SDS011;16586;48.976;9.584;2022-11-27T05:06:26;3.33;;;3.15;;
487;SDS011;16586;48.976;9.584;2022-11-27T05:08:53;3.50;;;3.20;;
487;SDS011;16586;48.976;9.584;2022-11-27T05:11:25;5.20;;;3.70;;
487;SDS011;16586;48.976;9.584;2022-11-27T05:13:52;3.20;;;2.90;;
487;SDS011;16586;48.976;9.584;2022-11-27T05:16:39;3.22;;;3.05;;
487;SDS011;16586;48.976;9.584;2022-11-27T05:19:05;3.10;;;2.70;;
487;SDS011;16586;48.976;9.584;2022-11-27T05:21:33;3.50;;;3.30;;
487;SDS011;16586;48.976;9.584;2022-11-27T05:24:00;4.45;;;3.10;;
487;SDS011;16586;48.976;9.584;2022-11-27T05:26:28;5.03;;;3.45;;
487;SDS011;16586;48.976;9.584;2022-11-27T05:28:55;3.53;;;3.33;;
487;SDS011;16586;48.976;9.584;2022-11-27T05:31:22;4.70;;;3.60;;
487;SDS011;16586;48.976;9.584;2022-11-27T05:33:49;4.40;;;3.60;;
487;SDS011;16586;48.976;9.584;2022-11-27T05:36:16;3.40;;;3.20;;
487;SDS011;16586;48.976;9.584;2022-11-27T05:38:43;3.13;;;3.00;;
487;SDS011;16586;48.976;9.584;2022-11-27T05:41:10;3.45;;;3.30;;
487;SDS011;16586;48.976;9.584;2022-11-27T05:43:41;3.28;;;3.03;;
487;SDS011;16586;48.976;9.584;2022-11-27T05:46:08;2.72;;;2.60;;
487;SDS011;16586;48.976;9.584;2022-11-27T05:48:37;2.88;;;2.53;;
487;SDS011;16586;48.976;9.584;2022-11-27T05:51:04;2.50;;;2.40;;
487;SDS011;16586;48.976;9.584;2022-11-27T05:53:31;2.50;;;2.30;;
487;SDS011;16586;48.976;9.584;2022-11-27T05:55:59;2.20;;;1.80;;
487;SDS011;16586;48.976;9.584;2022-11-27T05:58:27;2.70;;;2.13;;
487;SDS011;16586;48.976;9.584;2022-11-27T06:00:55;2.60;;;2.45;;
487;SDS011;16586;48.976;9.584;2022-11-27T06:03:22;2.72;;;2.25;;
487;SDS011;16586;48.976;9.584;2022-11-27T06:05:48;4.45;;;2.40;;
487;SDS011;16586;48.976;9.584;2022-11-27T06:08:15;2.90;;;2.40;;
487;SDS011;16586;48.976;9.584;2022-11-27T06:10:43;3.10;;;2.90;;
487;SDS011;16586;48.976;9.584;2022-11-27T06:13:12;3.15;;;2.90;;
487;SDS011;16586;48.976;9.584;2022-11-27T06:15:40;3.10;;;2.90;;
487;SDS011;16586;48.976;9.584;2022-11-27T06:18:09;4.00;;;2.80;;
487;SDS011;16586;48.976;9.584;2022-11-27T06:20:37;2.78;;;2.60;;
487;SDS011;16586;48.976;9.584;2022-11-27T06:23:04;3.10;;;2.90;;
487;SDS011;16586;48.976;9.584;2022-11-27T06:25:30;2.53;;;2.38;;
487;SDS011;16586;48.976;9.584;2022-11-27T06:27:57;3.03;;;2.80;;
487;SDS011;16586;48.976;9.584;2022-11-27T06:30:24;2.90;;;2.30;;
487;SDS011;16586;48.976;9.584;2022-11-27T06:32:51;2.20;;;2.10;;
487;SDS011;16586;48.976;9.584;2022-11-27T06:35:19;2.67;;;2.38;;
487;SDS011;16586;48.976;9.584;2022-11-27T06:37:46;3.40;;;3.20;;
487;SDS011;16586;48.976;9.584;2022-11-27T06:40:13;3.55;;;2.85;;
487;SDS011;16586;48.976;9.584;2022-11-27T06:42:40;2.35;;;2.15;;
487;SDS011;16586;48.976;9.584;2022-11-27T06:45:09;3.20;;;3.00;;
487;SDS011;16586;48.976;9.584;2022-11-27T06:47:38;2.40;;;2.20;;
487;SDS011;16586;48.976;9.584;2022-11-27T06:50:05;2.60;;;2.30;;
487;SDS011;16586;48.976;9.584;2022-11-27T06:52:33;2.47;;;2.10;;
487;SDS011;16586;48.976;9.584;2022-11-27T06:55:00;2.60;;;2.40;;
487;SDS011;16586;48.976;9.584;2022-11-27T06:57:27;2.75;;;2.17;;
487;SDS011;16586;48.976;9.584;2022-11-27T06:59:54;3.63;;;3.00;;
487;SDS011;16586;48.976;9.584;2022-11-27T07:02:20;5.88;;;4.97;;
487;SDS011;16586;48.976;9.584;2022-11-27T07:04:47;5.22;;;4.93;;
487;SDS011;16586;48.976;9.584;2022-11-27T07:07:14;4.15;;;3.92;;
487;SDS011;16586;48.976;9.584;2022-11-27T07:09:42;4.70;;;4.40;;
487;SDS011;16586;48.976;9.584;2022-11-27T07:12:09;4.10;;;3.70;;
487;SDS011;16586;48.976;9.584;2022-11-27T07:14:36;4.70;;;4.03;;
487;SDS011;16586;48.976;9.584;2022-11-27T07:17:02;3.50;;;3.30;;
487;SDS011;16586;48.976;9.584;2022-11-27T07:19:29;2.50;;;2.30;;
487;SDS011;16586;48.976;9.584;2022-11-27T07:21:56;2.85;;;2.63;;
487;SDS011;16586;48.976;9.584;2022-11-27T07:24:23;2.72;;;2.55;;
487;SDS011;16586;48.976;9.584;2022-11-27T07:26:51;2.95;;;2.75;;
487;SDS011;16586;48.976;9.584;2022-11-27T07:29:17;2.70;;;2.53;;
487;SDS011;16586;48.976;9.584;2022-11-27T07:31:44;2.90;;;2.30;;
487;SDS011;16586;48.976;9.584;2022-11-27T07:34:12;3.05;;;2.85;;
487;SDS011;16586;48.976;9.584;2022-11-27T07:36:38;3.35;;;2.50;;
487;SDS011;16586;48.976;9.584;2022-11-27T07:39:05;3.17;;;2.20;;
487;SDS011;16586;48.976;9.584;2022-11-27T07:41:32;2.42;;;1.88;;
487;SDS011;16586;48.976;9.584;2022-11-27T07:44:00;3.80;;;3.50;;
487;SDS011;16586;48.976;9.584;2022-11-27T07:46:28;2.80;;;2.70;;
487;SDS011;16586;48.976;9.584;2022-11-27T07:48:55;3.15;;;2.75;;
487;SDS011;16586;48.976;9.584;2022-11-27T07:51:22;3.50;;;3.30;;
487;SDS011;16586;48.976;9.584;2022-11-27T07:53:48;5.40;;;4.30;;
487;SDS011;16586;48.976;9.584;2022-11-27T07:56:16;5.90;;;5.63;;
487;SDS011;16586;48.976;9.584;2022-11-27T07:58:43;5.05;;;4.75;;
487;SDS011;16586;48.976;9.584;2022-11-27T08:01:15;4.43;;;4.13;;
487;SDS011;16586;48.976;9.584;2022-11-27T08:03:44;5.70;;;4.93;;
487;SDS011;16586;48.976;9.584;2022-11-27T08:06:15;6.07;;;5.55;;
487;SDS011;16586;48.976;9.584;2022-11-27T08:08:43;5.32;;;5.03;;
487;SDS011;16586;48.976;9.584;2022-11-27T08:11:15;5.25;;;5.00;;
487;SDS011;16586;48.976;9.584;2022-11-27T08:13:42;5.20;;;4.90;;
487;SDS011;16586;48.976;9.584;2022-11-27T08:16:09;5.60;;;5.07;;
487;SDS011;16586;48.976;9.584;2022-11-27T08:18:37;4.97;;;4.67;;
487;SDS011;16586;48.976;9.584;2022-11-27T08:21:05;5.70;;;4.85;;
487;SDS011;16586;48.976;9.584;2022-11-27T08:23:32;9.43;;;6.20;;
487;SDS011;16586;48.976;9.584;2022-11-27T08:25:58;10.13;;;7.07;;
487;SDS011;16586;48.976;9.584;2022-11-27T08:28:25;8.77;;;6.80;;
487;SDS011;16586;48.976;9.584;2022-11-27T08:30:56;9.65;;;7.47;;
487;SDS011;16586;48.976;9.584;2022-11-27T08:33:23;8.43;;;5.55;;
487;SDS011;16586;48.976;9.584;2022-11-27T08:35:51;4.00;;;3.45;;
487;SDS011;16586;48.976;9.584;2022-11-27T08:38:18;3.35;;;2.80;;
487;SDS011;16586;48.976;9.584;2022-11-27T08:40:55;4.45;;;2.85;;
487;SDS011;16586;48.976;9.584;2022-11-27T08:43:25;3.13;;;2.70;;
487;SDS011;16586;48.976;9.584;2022-11-27T08:45:56;3.05;;;2.80;;
487;SDS011;16586;48.976;9.584;2022-11-27T08:48:25;2.80;;;2.53;;
487;SDS011;16586;48.976;9.584;2022-11-27T08:51:05;3.58;;;2.97;;
487;SDS011;16586;48.976;9.584;2022-11-27T08:53:39;3.93;;;3.27;;
487;SDS011;16586;48.976;9.584;2022-11-27T08:56:12;3.40;;;3.20;;
487;SDS011;16586;48.976;9.584;2022-11-27T08:58:42;4.20;;;3.60;;
487;SDS011;16586;48.976;9.584;2022-11-27T09:01:11;3.75;;;3.60;;
487;SDS011;16586;48.976;9.584;2022-11-27T09:03:41;3.80;;;3.58;;
487;SDS011;16586;48.976;9.584;2022-11-27T09:06:11;4.60;;;4.30;;
487;SDS011;16586;48.976;9.584;2022-11-27T09:08:40;4.45;;;4.00;;
487;SDS011;16586;48.976;9.584;2022-11-27T09:11:09;4.15;;;3.92;;
487;SDS011;16586;48.976;9.584;2022-11-27T09:13:37;3.88;;;3.45;;
487;SDS011;16586;48.976;9.584;2022-11-27T09:16:06;4.03;;;3.80;;
487;SDS011;16586;48.976;9.584;2022-11-27T09:18:36;4.57;;;4.17;;
487;SDS011;16586;48.976;9.584;2022-11-27T09:21:20;4.47;;;4.00;;
487;SDS011;16586;48.976;9.584;2022-11-27T09:23:51;3.50;;;3.30;;
487;SDS011;16586;48.976;9.584;2022-11-27T09:26:18;2.80;;;2.63;;
487;SDS011;16586;48.976;9.584;2022-11-27T09:28:45;2.50;;;2.33;;
487;SDS011;16586;48.976;9.584;2022-11-27T09:31:12;1.90;;;1.90;;
487;SDS011;16586;48.976;9.584;2022-11-27T09:33:40;2.28;;;1.95;;
487;SDS011;16586;48.976;9.584;2022-11-27T09:36:08;1.83;;;1.40;;
487;SDS011;16586;48.976;9.584;2022-11-27T09:38:38;1.88;;;1.60;;
487;SDS011;16586;48.976;9.584;2022-11-27T09:41:06;2.15;;;2.03;;
487;SDS011;16586;48.976;9.584;2022-11-27T09:43:44;2.80;;;2.60;;
487;SDS011;16586;48.976;9.584;2022-11-27T09:46:18;2.93;;;2.20;;
487;SDS011;16586;48.976;9.584;2022-11-27T09:48:51;1.83;;;1.80;;
487;SDS011;16586;48.976;9.584;2022-11-27T09:51:21;1.90;;;1.50;;
487;SDS011;16586;48.976;9.584;2022-11-27T09:53:57;2.00;;;1.90;;
487;SDS011;16586;48.976;9.584;2022-11-27T09:56:29;1.80;;;1.45;;
487;SDS011;16586;48.976;9.584;2022-11-27T09:59:00;1.98;;;1.60;;
487;SDS011;16586;48.976;9.584;2022-11-27T10:01:29;2.50;;;1.58;;
487;SDS011;16586;48.976;9.584;2022-11-27T10:03:59;2.20;;;1.80;;
487;SDS011;16586;48.976;9.584;2022-11-27T10:06:28;3.20;;;2.33;;
487;SDS011;16586;48.976;9.584;2022-11-27T10:09:11;2.53;;;1.95;;
487;SDS011;16586;48.976;9.584;2022-11-27T10:11:49;1.80;;;1.60;;
487;SDS011;16586;48.976;9.584;2022-11-27T10:14:32;1.80;;;1.70;;
487;SDS011;16586;48.976;9.584;2022-11-27T10:17:08;16.25;;;12.95;;
487;SDS011;16586;48.976;9.584;2022-11-27T10:19:45;5.10;;;4.60;;
487;SDS011;16586;48.976;9.584;2022-11-27T10:22:22;4.03;;;2.90;;
487;SDS011;16586;48.976;9.584;2022-11-27T10:24:58;2.60;;;2.25;;
487;SDS011;16586;48.976;9.584;2022-11-27T10:27:34;2.20;;;1.70;;
487;SDS011;16586;48.976;9.584;2022-11-27T10:30:12;2.40;;;2.05;;
487;SDS011;16586;48.976;9.584;2022-11-27T10:32:41;2.47;;;2.00;;
487;SDS011;16586;48.976;9.584;2022-11-27T10:35:12;2.25;;;1.80;;
487;SDS011;16586;48.976;9.584;2022-11-27T10:37:42;2.20;;;1.83;;
487;SDS011;16586;48.976;9.584;2022-11-27T10:40:19;1.73;;;1.60;;
487;SDS011;16586;48.976;9.584;2022-11-27T10:42:53;2.22;;;1.90;;
487;SDS011;16586;48.976;9.584;2022-11-27T10:45:30;1.90;;;1.70;;
487;SDS011;16586;48.976;9.584;2022-11-27T10:48:08;1.48;;;1.30;;
487;SDS011;16586;48.976;9.584;2022-11-27T10:50:35;1.83;;;1.50;;
487;SDS011;16586;48.976;9.584;2022-11-27T10:53:03;1.90;;;1.55;;
487;SDS011;16586;48.976;9.584;2022-11-27T10:55:36;2.10;;;1.48;;
487;SDS011;16586;48.976;9.584;2022-11-27T10:58:35;1.60;;;1.43;;
487;SDS011;16586;48.976;9.584;2022-11-27T11:01:08;1.40;;;1.20;;
487;SDS011;16586;48.976;9.584;2022-11-27T11:03:37;1.90;;;1.60;;
487;SDS011;16586;48.976;9.584;2022-11-27T11:06:05;2.40;;;1.60;;
487;SDS011;16586;48.976;9.584;2022-11-27T11:08:39;1.85;;;1.52;;
487;SDS011;16586;48.976;9.584;2022-11-27T11:11:08;1.90;;;1.38;;
487;SDS011;16586;48.976;9.584;2022-11-27T11:13:43;2.58;;;1.50;;
487;SDS011;16586;48.976;9.584;2022-11-27T11:16:17;2.73;;;1.77;;
487;SDS011;16586;48.976;9.584;2022-11-27T11:18:55;2.80;;;1.40;;
487;SDS011;16586;48.976;9.584;2022-11-27T11:21:30;2.30;;;1.30;;
487;SDS011;16586;48.976;9.584;2022-11-27T11:24:05;2.05;;;1.30;;
487;SDS011;16586;48.976;9.584;2022-11-27T11:26:45;1.40;;;1.13;;
487;SDS011;16586;48.976;9.584;2022-11-27T11:29:19;1.50;;;1.20;;
487;SDS011;16586;48.976;9.584;2022-11-27T11:31:52;1.70;;;1.20;;
487;SDS011;16586;48.976;9.584;2022-11-27T11:34:21;1.70;;;1.50;;
487;SDS011;16586;48.976;9.584;2022-11-27T11:36:54;1.40;;;1.00;;
487;SDS011;16586;48.976;9.584;2022-11-27T11:39:23;1.35;;;1.10;;
487;SDS011;16586;48.976;9.584;2022-11-27T11:41:54;1.80;;;1.15;;
487;SDS011;16586;48.976;9.584;2022-11-27T11:47:21;1.20;;;1.00;;
487;SDS011;16586;48.976;9.584;2022-11-27T11:49:50;2.20;;;1.00;;
487;SDS011;16586;48.976;9.584;2022-11-27T11:52:23;1.63;;;1.00;;
487;SDS011;16586;48.976;9.584;2022-11-27T11:55:02;1.60;;;1.10;;
487;SDS011;16586;48.976;9.584;2022-11-27T11:57:44;1.50;;;0.80;;
487;SDS011;16586;48.976;9.584;2022-11-27T12:00:38;1.45;;;0.60;;
487;SDS011;16586;48.976;9.584;2022-11-27T12:03:22;1.20;;;0.80;;
487;SDS011;16586;48.976;9.584;2022-11-27T12:06:06;2.13;;;0.77;;
487;SDS011;16586;48.976;9.584;2022-11-27T12:08:49;1.10;;;0.80;;
487;SDS011;16586;48.976;9.584;2022-11-27T12:11:23;1.45;;;0.88;;
487;SDS011;16586;48.976;9.584;2022-11-27T12:14:03;1.35;;;0.90;;
487;SDS011;16586;48.976;9.584;2022-11-27T12:16:40;1.20;;;0.80;;
487;SDS011;16586;48.976;9.584;2022-11-27T12:19:23;1.50;;;0.98;;
487;SDS011;16586;48.976;9.584;2022-11-27T12:22:05;1.10;;;0.90;;
487;SDS011;16586;48.976;9.584;2022-11-27T12:24:44;1.80;;;0.80;;
487;SDS011;16586;48.976;9.584;2022-11-27T12:27:26;1.10;;;0.60;;
487;SDS011;16586;48.976;9.584;2022-11-27T12:30:12;1.20;;;0.70;;
487;SDS011;16586;48.976;9.584;2022-11-27T12:35:43;1.10;;;0.70;;
487;SDS011;16586;48.976;9.584;2022-11-27T12:38:29;1.80;;;1.10;;
487;SDS011;16586;48.976;9.584;2022-11-27T12:41:24;3.45;;;0.82;;
487;SDS011;16586;48.976;9.584;2022-11-27T12:44:07;1.50;;;1.00;;
487;SDS011;16586;48.976;9.584;2022-11-27T12:46:53;6.15;;;4.28;;
487;SDS011;16586;48.976;9.584;2022-11-27T12:49:27;3.60;;;2.97;;
487;SDS011;16586;48.976;9.584;2022-11-27T12:52:01;1.33;;;0.70;;
487;SDS011;16586;48.976;9.584;2022-11-27T12:54:35;1.80;;;0.90;;
487;SDS011;16586;48.976;9.584;2022-11-27T12:57:07;1.20;;;0.80;;
487;SDS011;16586;48.976;9.584;2022-11-27T12:59:41;2.95;;;2.35;;
487;SDS011;16586;48.976;9.584;2022-11-27T13:02:19;1.77;;;1.15;;
487;SDS011;16586;48.976;9.584;2022-11-27T13:04:53;1.00;;;0.57;;
487;SDS011;16586;48.976;9.584;2022-11-27T13:07:25;1.00;;;0.52;;
487;SDS011;16586;48.976;9.584;2022-11-27T13:09:55;1.10;;;0.70;;
487;SDS011;16586;48.976;9.584;2022-11-27T13:12:28;1.80;;;1.75;;
487;SDS011;16586;48.976;9.584;2022-11-27T13:15:00;1.48;;;0.70;;
487;SDS011;16586;48.976;9.584;2022-11-27T13:17:33;1.10;;;0.70;;
487;SDS011;16586;48.976;9.584;2022-11-27T13:20:04;1.00;;;0.60;;
487;SDS011;16586;48.976;9.584;2022-11-27T13:22:39;1.00;;;0.60;;
487;SDS011;16586;48.976;9.584;2022-11-27T13:25:09;1.50;;;0.90;;
487;SDS011;16586;48.976;9.584;2022-11-27T13:27:39;1.17;;;0.75;;
487;SDS011;16586;48.976;9.584;2022-11-27T13:30:16;3.05;;;2.85;;
487;SDS011;16586;48.976;9.584;2022-11-27T13:32:48;1.00;;;0.80;;
487;SDS011;16586;48.976;9.584;2022-11-27T13:35:18;1.90;;;1.90;;
487;SDS011;16586;48.976;9.584;2022-11-27T13:37:48;1.40;;;1.10;;
487;SDS011;16586;48.976;9.584;2022-11-27T13:40:22;2.00;;;1.50;;
487;SDS011;16586;48.976;9.584;2022-11-27T13:42:53;1.10;;;0.82;;
487;SDS011;16586;48.976;9.584;2022-11-27T13:45:21;1.00;;;0.70;;
487;SDS011;16586;48.976;9.584;2022-11-27T13:47:52;1.35;;;0.60;;
487;SDS011;16586;48.976;9.584;2022-11-27T13:50:20;1.27;;;0.88;;
487;SDS011;16586;48.976;9.584;2022-11-27T13:52:51;1.00;;;0.50;;
487;SDS011;16586;48.976;9.584;2022-11-27T13:55:24;2.22;;;0.90;;
487;SDS011;16586;48.976;9.584;2022-11-27T13:57:53;1.20;;;0.90;;
487;SDS011;16586;48.976;9.584;2022-11-27T14:00:29;1.20;;;0.60;;
487;SDS011;16586;48.976;9.584;2022-11-27T14:02:59;1.77;;;0.77;;
487;SDS011;16586;48.976;9.584;2022-11-27T14:05:33;1.00;;;0.70;;
487;SDS011;16586;48.976;9.584;2022-11-27T14:08:02;1.10;;;0.65;;
487;SDS011;16586;48.976;9.584;2022-11-27T14:10:46;1.00;;;0.60;;
487;SDS011;16586;48.976;9.584;2022-11-27T14:13:15;1.00;;;0.50;;
487;SDS011;16586;48.976;9.584;2022-11-27T14:15:43;1.10;;;0.50;;
487;SDS011;16586;48.976;9.584;2022-11-27T14:18:27;1.17;;;0.77;;
487;SDS011;16586;48.976;9.584;2022-11-27T14:20:56;1.10;;;0.60;;
487;SDS011;16586;48.976;9.584;2022-11-27T14:23:25;1.10;;;0.50;;
487;SDS011;16586;48.976;9.584;2022-11-27T14:25:59;2.08;;;0.93;;
487;SDS011;16586;48.976;9.584;2022-11-27T14:28:28;1.13;;;0.70;;
487;SDS011;16586;48.976;9.584;2022-11-27T14:30:58;1.40;;;0.80;;
487;SDS011;16586;48.976;9.584;2022-11-27T14:33:28;1.20;;;1.00;;
487;SDS011;16586;48.976;9.584;2022-11-27T14:35:56;1.67;;;0.82;;
487;SDS011;16586;48.976;9.584;2022-11-27T14:38:25;1.70;;;1.40;;
487;SDS011;16586;48.976;9.584;2022-11-27T14:40:53;1.10;;;0.90;;
487;SDS011;16586;48.976;9.584;2022-11-27T14:43:32;1.20;;;0.90;;
487;SDS011;16586;48.976;9.584;2022-11-27T14:45:59;1.25;;;0.80;;
487;SDS011;16586;48.976;9.584;2022-11-27T14:48:30;1.30;;;0.98;;
487;SDS011;16586;48.976;9.584;2022-11-27T14:51:05;1.00;;;0.60;;
487;SDS011;16586;48.976;9.584;2022-11-27T14:53:38;1.60;;;0.98;;
487;SDS011;16586;48.976;9.584;2022-11-27T14:56:06;1.00;;;0.60;;
487;SDS011;16586;48.976;9.584;2022-11-27T14:58:33;0.90;;;0.53;;
487;SDS011;16586;48.976;9.584;2022-11-27T15:01:01;0.80;;;0.50;;
487;SDS011;16586;48.976;9.584;2022-11-27T15:03:31;1.60;;;0.80;;
487;SDS011;16586;48.976;9.584;2022-11-27T15:05:59;1.58;;;1.40;;
487;SDS011;16586;48.976;9.584;2022-11-27T15:08:28;2.08;;;1.60;;
487;SDS011;16586;48.976;9.584;2022-11-27T15:10:58;2.60;;;2.00;;
487;SDS011;16586;48.976;9.584;2022-11-27T15:13:28;2.17;;;1.30;;
487;SDS011;16586;48.976;9.584;2022-11-27T15:15:58;1.40;;;1.00;;
487;SDS011;16586;48.976;9.584;2022-11-27T15:18:28;1.70;;;1.30;;
487;SDS011;16586;48.976;9.584;2022-11-27T15:20:58;1.38;;;0.90;;
487;SDS011;16586;48.976;9.584;2022-11-27T15:23:27;1.77;;;1.60;;
487;SDS011;16586;48.976;9.584;2022-11-27T15:26:03;1.70;;;1.50;;
487;SDS011;16586;48.976;9.584;2022-11-27T15:28:34;2.53;;;2.03;;
487;SDS011;16586;48.976;9.584;2022-11-27T15:31:19;1.90;;;1.20;;
487;SDS011;16586;48.976;9.584;2022-11-27T15:34:03;2.50;;;2.40;;
487;SDS011;16586;48.976;9.584;2022-11-27T15:36:35;1.70;;;1.42;;
487;SDS011;16586;48.976;9.584;2022-11-27T15:39:11;1.42;;;0.80;;
487;SDS011;16586;48.976;9.584;2022-11-27T15:41:50;1.65;;;1.00;;
487;SDS011;16586;48.976;9.584;2022-11-27T15:44:18;1.30;;;1.00;;